Terminal Aerodrome Forecast
Issued by NWS

Current Version | Previous Version | Graphics & Text | Print | Product List | Glossary On
Versions: 1 2 3 4 5 6 7 8 9 10 11 12 13 14 15 16 17 18 19 20
000
FTUS41 KILN 282100 AAA
TAFLCK
TAF AMD
KLCK 282111Z 2821/2918 32011KT P6SM SCT040 BKN070
     FM290100 32005KT P6SM BKN040
     FM291000 32005KT P6SM SCT040=

USA.gov is the U.S. government's official web portal to all federal, state and local government web resources and services.